createdAt,value
2018-04-11T00:01:34.136Z,25.87
2018-04-11T00:04:01.639Z,25.27
2018-04-11T00:06:29.153Z,20.10
2018-04-11T00:08:56.656Z,22.87
2018-04-11T00:11:24.300Z,22.57
2018-04-11T00:13:51.792Z,22.73
2018-04-11T00:16:19.292Z,25.23
2018-04-11T00:18:46.809Z,24.93
2018-04-11T00:21:14.313Z,24.43
2018-04-11T00:23:42.611Z,23.43
2018-04-11T00:26:10.105Z,26.37
2018-04-11T00:28:37.617Z,26.17
2018-04-11T00:31:05.881Z,24.87
2018-04-11T00:33:34.155Z,28.77
2018-04-11T00:36:02.412Z,28.00
2018-04-11T00:38:31.424Z,28.67
2018-04-11T00:40:59.692Z,33.97
2018-04-11T00:43:27.201Z,30.90
2018-04-11T00:45:54.696Z,34.47
2018-04-11T00:48:22.980Z,33.80
2018-04-11T00:50:51.240Z,40.70
2018-04-11T00:53:27.592Z,37.87
2018-04-11T00:55:55.089Z,34.00
2018-04-11T00:58:23.373Z,36.57
2018-04-11T01:00:51.628Z,32.77
2018-04-11T01:03:19.140Z,43.17
2018-04-11T01:05:46.777Z,36.97
2018-04-11T01:08:14.287Z,39.80
2018-04-11T01:10:41.793Z,39.17
2018-04-11T01:13:09.309Z,37.97
2018-04-11T01:15:36.801Z,43.63
2018-04-11T01:18:05.080Z,38.23
2018-04-11T01:20:33.344Z,41.63
2018-04-11T01:23:01.621Z,39.23
2018-04-11T01:25:29.915Z,37.27
2018-04-11T01:27:57.440Z,41.07
2018-04-11T01:30:24.932Z,37.80
2018-04-11T01:32:52.449Z,38.60
2018-04-11T01:35:21.448Z,39.30
2018-04-11T01:37:48.956Z,38.40
2018-04-11T01:40:16.447Z,41.57
2018-04-11T01:42:44.562Z,37.20
2018-04-11T01:45:12.824Z,39.63
2018-04-11T01:47:41.099Z,41.90
2018-04-11T01:50:09.360Z,40.87
2018-04-11T01:52:36.881Z,36.53
2018-04-11T01:55:04.380Z,43.10
2018-04-11T01:57:31.974Z,40.83
2018-04-11T02:00:00.233Z,38.10
2018-04-11T02:02:28.509Z,37.93
2018-04-11T02:04:56.800Z,40.77
2018-04-11T02:07:24.291Z,43.33
2018-04-11T02:09:51.837Z,40.67
2018-04-11T02:12:19.332Z,41.60
2018-04-11T02:14:46.841Z,39.93
2018-04-11T02:17:14.341Z,47.47
2018-04-11T02:19:41.851Z,40.40
2018-04-11T02:22:09.344Z,44.43
2018-04-11T02:24:36.852Z,46.37
2018-04-11T02:27:05.120Z,44.73
2018-04-11T02:29:33.402Z,48.60
2018-04-11T02:32:01.725Z,48.10
2018-04-11T02:34:29.965Z,46.90
2018-04-11T02:36:57.560Z,46.67
2018-04-11T02:39:25.116Z,46.73
2018-04-11T02:41:52.618Z,42.43
2018-04-11T02:44:20.129Z,43.80
2018-04-11T02:46:47.630Z,42.73
2018-04-11T02:49:15.161Z,49.07
2018-04-11T02:51:42.661Z,51.47
2018-04-11T02:54:10.955Z,51.90
2018-04-11T02:56:38.466Z,49.30
2018-04-11T02:59:05.981Z,45.10
2018-04-11T03:01:33.485Z,52.57
2018-04-11T03:04:02.504Z,44.47
2018-04-11T03:06:30.762Z,47.27
2018-04-11T03:08:58.280Z,35.77
2018-04-11T03:11:25.807Z,46.60
2018-04-11T03:13:54.085Z,41.30
2018-04-11T03:16:21.645Z,45.63
2018-04-11T03:18:49.157Z,45.77
2018-04-11T03:21:16.652Z,40.13
2018-04-11T03:23:44.928Z,39.40
2018-04-11T03:26:13.217Z,44.27
2018-04-11T03:28:40.735Z,45.70
2018-04-11T03:31:08.996Z,46.40
2018-04-11T03:33:36.508Z,44.37
2018-04-11T03:36:04.390Z,44.80
2018-04-11T03:38:33.452Z,48.27
2018-04-11T03:41:01.745Z,49.40
2018-04-11T03:43:29.265Z,51.23
2018-04-11T03:45:56.768Z,43.23
2018-04-11T03:48:24.316Z,47.63
2018-04-11T03:50:52.572Z,47.50
2018-04-11T03:53:20.873Z,47.60
2018-04-11T03:55:48.364Z,47.73
2018-04-11T03:58:15.876Z,48.03
2018-04-11T04:00:44.136Z,54.30
2018-04-11T04:03:12.445Z,49.13
2018-04-11T04:05:39.953Z,53.23
2018-04-11T04:08:07.471Z,56.27
2018-04-11T04:10:34.968Z,59.03
2018-04-11T04:13:02.469Z,57.33
2018-04-11T04:15:41.970Z,56.73
2018-04-11T04:18:21.340Z,125.20
2018-04-11T04:20:49.608Z,116.67
2018-04-11T04:23:17.873Z,114.03
2018-04-11T04:25:46.153Z,401.90
2018-04-11T04:28:14.448Z,276.07
2018-04-11T04:30:42.008Z,269.37
2018-04-11T04:33:09.509Z,323.17
2018-04-11T04:35:37.020Z,253.73
2018-04-11T04:38:04.512Z,189.03
2018-04-11T04:40:32.033Z,104.17
2018-04-11T04:43:00.298Z,80.47
2018-04-11T04:45:28.600Z,121.47
2018-04-11T04:47:56.148Z,241.33
2018-04-11T04:50:23.662Z,359.50
2018-04-11T04:52:51.163Z,552.70
2018-04-11T04:55:19.453Z,368.27
2018-04-11T04:57:46.952Z,342.47
2018-04-11T05:00:14.469Z,112.43
2018-04-11T05:02:41.978Z,121.63
2018-04-11T05:05:11.013Z,355.50
2018-04-11T05:07:38.628Z,208.23
2018-04-11T05:10:06.111Z,165.77
2018-04-11T05:12:34.373Z,168.63
2018-04-11T05:15:01.898Z,230.20
2018-04-11T05:17:29.401Z,205.77
2018-04-11T05:19:57.689Z,121.03
2018-04-11T05:22:25.949Z,67.40
2018-04-11T05:24:54.225Z,49.30
2018-04-11T05:27:22.491Z,54.33
2018-04-11T05:29:50.008Z,56.63
2018-04-11T05:32:17.504Z,50.33
2018-04-11T05:34:45.012Z,47.90
2018-04-11T05:37:12.513Z,50.07
2018-04-11T05:39:40.030Z,43.77
2018-04-11T05:42:07.568Z,46.77
2018-04-11T05:44:35.128Z,44.13
2018-04-11T05:47:02.697Z,42.53
2018-04-11T05:49:30.205Z,40.47
2018-04-11T05:51:57.718Z,48.10
2018-04-11T05:54:25.232Z,42.13
2018-04-11T05:56:53.497Z,44.97
2018-04-11T05:59:22.522Z,40.73
2018-04-11T06:01:50.780Z,39.97
2018-04-11T06:04:18.292Z,41.30
2018-04-11T06:06:45.789Z,43.30
2018-04-11T06:09:13.312Z,41.07
2018-04-11T06:11:40.863Z,39.20
2018-04-11T06:14:09.100Z,42.03
2018-04-11T06:16:37.364Z,40.40
2018-04-11T06:19:04.864Z,38.47
2018-04-11T06:21:32.385Z,36.47
2018-04-11T06:24:00.645Z,36.70
2018-04-11T06:26:28.165Z,33.13
2018-04-11T06:28:55.660Z,31.63
2018-04-11T06:31:23.172Z,32.17
2018-04-11T06:33:50.677Z,33.33
2018-04-11T06:36:18.189Z,31.10
2018-04-11T06:38:45.693Z,28.60
2018-04-11T06:41:13.205Z,30.70
2018-04-11T06:43:40.700Z,29.07
2018-04-11T06:46:08.358Z,28.83
2018-04-11T06:48:36.616Z,28.30
2018-04-11T06:51:04.139Z,22.27
2018-04-11T06:53:31.640Z,23.63
2018-04-11T06:55:59.152Z,19.33
2018-04-11T06:58:26.653Z,17.03
2018-04-11T07:00:54.169Z,13.70
2018-04-11T07:03:21.672Z,12.10
2018-04-11T07:05:49.190Z,10.53
2018-04-11T07:08:16.685Z,8.27
2018-04-11T07:10:44.196Z,9.80
2018-04-11T07:13:12.460Z,8.63
2018-04-11T07:15:40.744Z,9.20
2018-04-11T07:18:09.005Z,8.60
2018-04-11T07:20:36.524Z,9.83
2018-04-11T07:23:04.019Z,8.80
2018-04-11T07:25:31.529Z,8.97
2018-04-11T07:27:59.028Z,9.43
2018-04-11T07:30:26.537Z,5.60
2018-04-11T07:32:54.031Z,5.60
2018-04-11T07:35:21.544Z,4.23
2018-04-11T07:37:49.037Z,5.20
2018-04-11T07:40:16.615Z,5.70
2018-04-11T07:42:44.080Z,5.50
2018-04-11T07:45:11.676Z,4.33
2018-04-11T07:47:39.181Z,7.43
2018-04-11T07:50:08.213Z,6.47
2018-04-11T07:52:36.473Z,6.67
2018-04-11T07:55:04.751Z,6.80
2018-04-11T07:57:33.017Z,7.23
2018-04-11T08:00:00.537Z,9.80
2018-04-11T08:02:28.035Z,7.13
2018-04-11T08:04:55.557Z,7.17
2018-04-11T08:07:23.053Z,7.90
2018-04-11T08:09:51.333Z,8.20
2018-04-11T08:12:19.600Z,6.87
2018-04-11T08:14:47.142Z,8.97
2018-04-11T08:17:14.640Z,8.17
2018-04-11T08:19:42.901Z,8.17
2018-04-11T08:22:11.186Z,11.13
2018-04-11T08:24:39.448Z,11.33
2018-04-11T08:27:06.960Z,11.57
2018-04-11T08:29:34.448Z,9.70
2018-04-11T08:32:01.964Z,10.53
2018-04-11T08:34:29.460Z,11.53
2018-04-11T08:36:56.978Z,10.13
2018-04-11T08:39:24.474Z,8.20
2018-04-11T08:41:51.993Z,8.87
2018-04-11T08:44:19.493Z,8.30
2018-04-11T08:46:46.997Z,8.57
2018-04-11T08:49:14.494Z,6.77
2018-04-11T08:51:42.014Z,6.50
2018-04-11T08:54:09.521Z,6.40
2018-04-11T08:56:37.037Z,8.10
2018-04-11T08:59:04.532Z,7.97
2018-04-11T09:01:32.041Z,8.00
2018-04-11T09:03:59.542Z,10.37
2018-04-11T09:06:27.052Z,7.80
2018-04-11T09:08:55.312Z,12.47
2018-04-11T09:11:23.590Z,7.30
2018-04-11T09:13:51.853Z,4.97
2018-04-11T09:16:19.365Z,6.40
2018-04-11T09:18:46.864Z,7.07
2018-04-11T09:21:14.378Z,7.97
2018-04-11T09:23:41.872Z,6.57
2018-04-11T09:26:09.417Z,8.80
2018-04-11T09:28:36.900Z,7.00
2018-04-11T09:31:04.417Z,7.60
2018-04-11T09:33:31.913Z,4.80
2018-04-11T09:35:59.425Z,8.27
2018-04-11T09:38:26.923Z,12.33
2018-04-11T09:40:54.437Z,6.33
2018-04-11T09:43:21.933Z,6.63
2018-04-11T09:45:49.440Z,8.37
2018-04-11T09:48:16.938Z,7.80
2018-04-11T09:50:44.452Z,8.03
2018-04-11T09:53:12.708Z,8.77
2018-04-11T09:55:40.219Z,9.80
2018-04-11T09:58:07.717Z,10.27
2018-04-11T10:00:35.229Z,10.90
2018-04-11T10:03:05.515Z,9.00
2018-04-11T10:05:33.807Z,10.10
2018-04-11T10:08:01.309Z,10.03
2018-04-11T10:10:28.933Z,10.03
2018-04-11T10:12:56.424Z,9.63
2018-04-11T10:15:23.921Z,7.73
2018-04-11T10:17:52.264Z,9.33
2018-04-11T10:20:19.775Z,6.83
2018-04-11T10:22:47.293Z,9.73
2018-04-11T10:25:14.796Z,11.60
2018-04-11T10:27:42.351Z,9.87
2018-04-11T10:30:09.923Z,13.60
2018-04-11T10:32:37.469Z,12.73
2018-04-11T10:35:04.970Z,11.30
2018-04-11T10:37:32.489Z,13.33
2018-04-11T10:39:59.984Z,11.67
2018-04-11T10:42:27.492Z,12.30
2018-04-11T10:44:55.752Z,14.30
2018-04-11T10:47:23.268Z,12.17
2018-04-11T10:49:50.764Z,12.00
2018-04-11T10:52:18.353Z,14.07
2018-04-11T10:54:45.862Z,11.47
2018-04-11T10:57:13.376Z,11.53
2018-04-11T10:59:40.880Z,10.43
2018-04-11T11:02:08.392Z,10.83
2018-04-11T11:04:35.944Z,8.83
2018-04-11T11:07:03.452Z,9.40
2018-04-11T11:09:30.953Z,10.80
2018-04-11T11:11:59.229Z,8.83
2018-04-11T11:14:27.497Z,10.33
2018-04-11T11:16:55.772Z,10.07
2018-04-11T11:19:24.029Z,9.67
2018-04-11T11:21:51.542Z,12.87
2018-04-11T11:24:19.044Z,7.40
2018-04-11T11:26:46.585Z,9.43
2018-04-11T11:29:14.104Z,8.10
2018-04-11T11:31:41.630Z,6.53
2018-04-11T11:34:09.892Z,7.10
2018-04-11T11:36:37.404Z,6.53
2018-04-11T11:39:04.896Z,6.33
2018-04-11T11:41:32.409Z,5.60
2018-04-11T11:43:59.908Z,6.47
2018-04-11T11:46:27.420Z,6.50
2018-04-11T11:48:54.911Z,7.53
2018-04-11T11:51:22.420Z,12.10
2018-04-11T11:53:50.676Z,7.50
2018-04-11T11:56:18.267Z,6.60
2018-04-11T11:58:45.764Z,5.30
2018-04-11T12:01:13.285Z,7.20
2018-04-11T12:03:40.844Z,7.00
2018-04-11T12:06:08.361Z,7.77
2018-04-11T12:08:37.391Z,10.73
2018-04-11T12:11:04.956Z,21.50
2018-04-11T12:13:32.517Z,10.10
2018-04-11T12:16:00.014Z,8.47
2018-04-11T12:18:27.527Z,8.53
2018-04-11T12:20:55.789Z,10.13
2018-04-11T12:23:24.068Z,9.07
2018-04-11T12:25:52.330Z,6.73
2018-04-11T12:28:19.845Z,10.53
2018-04-11T12:30:47.340Z,7.63
2018-04-11T12:33:15.200Z,6.53
2018-04-11T12:35:42.699Z,5.80
2018-04-11T12:38:10.215Z,6.70
2018-04-11T12:40:37.816Z,4.83
2018-04-11T12:43:05.340Z,8.13
2018-04-11T12:45:32.840Z,11.70
2018-04-11T12:48:00.353Z,8.47
2018-04-11T12:50:27.856Z,7.90
2018-04-11T12:52:55.365Z,8.80
2018-04-11T12:55:22.866Z,8.97
2018-04-11T12:57:50.382Z,8.23
2018-04-11T13:00:18.696Z,7.90
2018-04-11T13:02:46.978Z,8.17
2018-04-11T13:05:14.473Z,9.00
2018-04-11T13:07:41.989Z,8.53
2018-04-11T13:10:09.481Z,6.80
2018-04-11T13:12:36.998Z,9.70
2018-04-11T13:15:05.273Z,6.57
2018-04-11T13:17:33.555Z,7.53
2018-04-11T13:20:01.821Z,7.23
2018-04-11T13:22:30.101Z,8.27
2018-04-11T13:24:58.363Z,9.70
2018-04-11T13:27:25.884Z,9.00
2018-04-11T13:29:53.377Z,8.33
2018-04-11T13:32:21.657Z,11.10
2018-04-11T13:34:49.950Z,8.10
2018-04-11T13:37:18.237Z,7.50
2018-04-11T13:39:45.732Z,8.87
2018-04-11T13:42:13.244Z,8.27
2018-04-11T13:44:41.500Z,9.43
2018-04-11T13:47:09.784Z,8.73
2018-04-11T13:49:38.049Z,9.23
2018-04-11T13:52:06.336Z,9.40
2018-04-11T13:54:34.601Z,8.50
2018-04-11T13:57:02.128Z,7.43
2018-04-11T13:59:29.624Z,10.27
2018-04-11T14:01:57.897Z,7.70
2018-04-11T14:04:26.196Z,7.77
2018-04-11T14:06:53.705Z,12.20
2018-04-11T14:09:21.220Z,13.47
2018-04-11T14:11:48.725Z,10.20
2018-04-11T14:14:16.236Z,7.83
2018-04-11T14:16:43.743Z,10.27
2018-04-11T14:19:11.262Z,16.80
2018-04-11T14:21:38.756Z,8.07
2018-04-11T14:24:06.269Z,5.30
2018-04-11T14:26:33.769Z,5.93
2018-04-11T14:29:01.291Z,9.47
2018-04-11T14:31:28.845Z,8.83
2018-04-11T14:33:56.364Z,6.40
2018-04-11T14:36:23.860Z,7.70
2018-04-11T14:38:51.420Z,8.57
2018-04-11T14:41:18.929Z,9.30
2018-04-11T14:43:46.449Z,8.17
2018-04-11T14:46:14.676Z,8.63
2018-04-11T14:48:42.197Z,14.50
2018-04-11T14:51:09.705Z,10.70
2018-04-11T14:53:37.984Z,9.43
2018-04-11T14:56:06.249Z,8.70
2018-04-11T14:58:34.533Z,6.10
2018-04-11T15:01:02.797Z,6.13
2018-04-11T15:03:31.086Z,6.00
2018-04-11T15:05:59.352Z,12.43
2018-04-11T15:08:27.628Z,6.77
2018-04-11T15:10:55.898Z,10.20
2018-04-11T15:13:23.853Z,7.20
2018-04-11T15:15:51.356Z,6.57
2018-04-11T15:18:18.868Z,7.67
2018-04-11T15:20:46.366Z,6.77
2018-04-11T15:23:13.890Z,12.07
2018-04-11T15:25:41.394Z,11.03
2018-04-11T15:28:08.905Z,5.33
2018-04-11T15:30:36.405Z,6.23
2018-04-11T15:33:03.965Z,8.87
2018-04-11T15:35:31.527Z,8.90
2018-04-11T15:37:59.048Z,8.00
2018-04-11T15:40:26.541Z,6.13
2018-04-11T15:42:54.054Z,6.63
2018-04-11T15:45:21.568Z,7.90
2018-04-11T15:47:49.086Z,10.33
2018-04-11T15:50:17.348Z,5.67
2018-04-11T15:52:45.271Z,6.63
2018-04-11T15:55:12.768Z,10.00
2018-04-11T15:57:40.282Z,8.33
2018-04-11T16:00:07.777Z,29.13
2018-04-11T16:02:35.276Z,11.40
2018-04-11T16:05:03.595Z,6.73
2018-04-11T16:07:31.088Z,10.60
2018-04-11T16:09:58.600Z,9.83
2018-04-11T16:12:26.137Z,6.20
2018-04-11T16:14:53.647Z,6.63
2018-04-11T16:17:21.145Z,11.50
2018-04-11T16:19:48.676Z,6.00
2018-04-11T16:22:16.268Z,9.30
2018-04-11T16:24:43.787Z,10.90
2018-04-11T16:27:11.280Z,7.93
2018-04-11T16:29:39.578Z,11.60
2018-04-11T16:32:07.076Z,10.20
2018-04-11T16:34:34.585Z,9.80
2018-04-11T16:37:02.461Z,10.03
2018-04-11T16:39:29.973Z,9.60
2018-04-11T16:41:57.470Z,12.00
2018-04-11T16:44:24.992Z,10.07
2018-04-11T16:46:52.542Z,8.47
2018-04-11T16:49:20.016Z,14.83
2018-04-11T16:51:48.279Z,13.83
2018-04-11T16:54:15.867Z,10.67
2018-04-11T16:56:44.129Z,14.33
2018-04-11T16:59:12.404Z,13.07
2018-04-11T17:01:40.673Z,15.23
2018-04-11T17:04:08.184Z,11.00
2018-04-11T17:06:35.685Z,11.60
2018-04-11T17:09:03.201Z,14.60
2018-04-11T17:11:30.696Z,14.67
2018-04-11T17:13:58.208Z,11.50
2018-04-11T17:16:25.711Z,12.13
2018-04-11T17:18:53.235Z,10.70
2018-04-11T17:21:32.729Z,11.60
2018-04-11T17:24:13.100Z,12.53
2018-04-11T17:26:52.561Z,9.73
2018-04-11T17:29:32.044Z,12.00
2018-04-11T17:31:59.542Z,13.27
2018-04-11T17:34:27.057Z,12.83
2018-04-11T17:36:54.559Z,11.63
2018-04-11T17:39:22.112Z,14.37
2018-04-11T17:41:49.614Z,18.83
2018-04-11T17:44:17.128Z,13.37
2018-04-11T17:46:44.624Z,11.07
2018-04-11T17:49:12.144Z,15.57
2018-04-11T17:51:39.640Z,15.37
2018-04-11T17:54:07.140Z,13.40
2018-04-11T17:56:35.419Z,17.90
2018-04-11T17:59:03.681Z,18.50
2018-04-11T18:01:31.200Z,19.00
2018-04-11T18:03:58.708Z,15.73
2018-04-11T18:06:26.992Z,20.77
2018-04-11T18:08:55.262Z,18.03
2018-04-11T18:11:23.549Z,18.20
2018-04-11T18:13:51.817Z,19.00
2018-04-11T18:16:20.100Z,15.73
2018-04-11T18:18:48.358Z,13.40
2018-04-11T18:21:15.868Z,16.20
2018-04-11T18:23:43.404Z,16.53
2018-04-11T18:26:10.920Z,16.83
2018-04-11T18:28:38.420Z,20.70
2018-04-11T18:31:06.044Z,20.90
2018-04-11T18:33:33.549Z,18.20
2018-04-11T18:36:01.098Z,19.20
2018-04-11T18:38:28.604Z,16.83
2018-04-11T18:40:56.212Z,19.97
2018-04-11T18:43:23.713Z,22.93
2018-04-11T18:45:51.224Z,19.53
2018-04-11T18:48:19.485Z,18.70
2018-04-11T18:50:47.819Z,17.20
2018-04-11T18:53:15.328Z,19.87
2018-04-11T18:55:43.608Z,17.47
2018-04-11T18:58:11.932Z,22.47
2018-04-11T19:00:39.446Z,25.90
2018-04-11T19:03:07.724Z,19.93
2018-04-11T19:05:35.241Z,17.27
2018-04-11T19:08:02.766Z,23.60
2018-04-11T19:10:30.289Z,19.53
2018-04-11T19:12:58.569Z,21.90
2018-04-11T19:15:26.221Z,21.93
2018-04-11T19:17:54.534Z,20.60
2018-04-11T19:20:22.100Z,21.80
2018-04-11T19:22:49.676Z,25.40
2018-04-11T19:25:17.280Z,24.00
2018-04-11T19:27:45.554Z,20.83
2018-04-11T19:30:13.844Z,18.93
2018-04-11T19:32:41.418Z,20.57
2018-04-11T19:35:08.940Z,23.23
2018-04-11T19:37:36.449Z,24.20
2018-04-11T19:40:03.992Z,20.63
2018-04-11T19:42:31.492Z,20.07
2018-04-11T19:44:59.013Z,27.43
2018-04-11T19:47:26.517Z,18.87
2018-04-11T19:49:54.059Z,19.13
2018-04-11T19:52:21.944Z,22.93
2018-04-11T19:54:49.450Z,22.13
2018-04-11T19:57:17.005Z,20.10
2018-04-11T19:59:44.504Z,19.87
2018-04-11T20:02:12.286Z,18.87
2018-04-11T20:04:39.789Z,25.67
2018-04-11T20:07:08.312Z,19.77
2018-04-11T20:09:36.025Z,22.63
2018-04-11T20:12:03.635Z,26.17
2018-04-11T20:14:31.550Z,19.27
2018-04-11T20:16:59.102Z,23.77
2018-04-11T20:19:27.364Z,22.37
2018-04-11T20:21:55.648Z,26.33
2018-04-11T20:24:23.912Z,19.70
2018-04-11T20:26:51.497Z,27.57
2018-04-11T20:29:19.056Z,28.53
2018-04-11T20:31:46.572Z,26.90
2018-04-11T20:34:14.077Z,24.13
2018-04-11T20:36:41.650Z,20.10
2018-04-11T20:39:09.192Z,22.83
2018-04-11T20:41:36.708Z,21.80
2018-04-11T20:44:04.213Z,24.57
2018-04-11T20:46:31.729Z,23.00
2018-04-11T20:48:59.224Z,23.87
2018-04-11T20:51:26.741Z,21.97
2018-04-11T20:53:55.778Z,24.00
2018-04-11T20:56:23.314Z,24.37
2018-04-11T20:58:51.581Z,22.63
2018-04-11T21:01:19.097Z,22.70
2018-04-11T21:03:46.596Z,29.00
2018-04-11T21:06:14.104Z,21.03
2018-04-11T21:08:41.605Z,22.63
2018-04-11T21:11:09.117Z,24.47
2018-04-11T21:13:36.617Z,24.20
2018-04-11T21:16:04.141Z,24.50
2018-04-11T21:18:31.672Z,22.37
2018-04-11T21:20:59.956Z,23.53
2018-04-11T21:23:27.460Z,22.67
2018-04-11T21:25:54.985Z,23.27
2018-04-11T21:28:23.366Z,23.77
2018-04-11T21:30:50.912Z,20.00
2018-04-11T21:33:18.417Z,18.13
2018-04-11T21:35:45.932Z,19.77
2018-04-11T21:38:13.428Z,16.20
2018-04-11T21:40:40.941Z,18.77
2018-04-11T21:43:08.481Z,19.47
2018-04-11T21:45:36.768Z,21.87
2018-04-11T21:48:04.277Z,17.60
2018-04-11T21:50:31.771Z,14.53
2018-04-11T21:53:00.045Z,15.67
2018-04-11T21:55:28.313Z,16.47
2018-04-11T21:57:55.824Z,20.80
2018-04-11T22:00:23.324Z,17.13
2018-04-11T22:02:50.849Z,19.47
2018-04-11T22:05:18.378Z,15.37
2018-04-11T22:07:45.904Z,21.33
2018-04-11T22:10:13.397Z,15.97
2018-04-11T22:12:40.904Z,15.33
2018-04-11T22:15:08.535Z,13.37
2018-04-11T22:17:36.065Z,11.60
2018-04-11T22:20:03.560Z,10.03
2018-04-11T22:22:31.072Z,11.97
2018-04-11T22:24:58.585Z,11.97
2018-04-11T22:27:26.100Z,10.03
2018-04-11T22:29:53.587Z,9.50
2018-04-11T22:32:21.101Z,9.23
2018-04-11T22:34:49.352Z,9.20
2018-04-11T22:37:16.860Z,11.07
2018-04-11T22:39:44.404Z,8.20
2018-04-11T22:42:11.928Z,8.00
2018-04-11T22:44:39.420Z,8.40
2018-04-11T22:47:07.696Z,6.80
2018-04-11T22:49:35.188Z,12.60
2018-04-11T22:52:02.711Z,9.87
2018-04-11T22:54:30.208Z,13.10
2018-04-11T22:56:57.716Z,9.13
2018-04-11T22:59:25.979Z,5.27
2018-04-11T23:01:53.505Z,9.83
2018-04-11T23:04:20.997Z,9.40
2018-04-11T23:06:49.273Z,6.53
2018-04-11T23:09:16.765Z,7.00
2018-04-11T23:11:44.272Z,9.27
2018-04-11T23:14:11.773Z,6.03
2018-04-11T23:16:39.285Z,7.90
2018-04-11T23:19:08.288Z,12.13
2018-04-11T23:21:35.796Z,5.03
2018-04-11T23:24:03.292Z,6.10
2018-04-11T23:26:30.804Z,2.97
2018-04-11T23:28:58.307Z,7.10
2018-04-11T23:31:27.187Z,4.60
2018-04-11T23:33:55.754Z,6.60
2018-04-11T23:36:24.260Z,7.80
2018-04-11T23:38:51.875Z,3.37
2018-04-11T23:41:19.655Z,4.53
2018-04-11T23:43:47.198Z,3.00
2018-04-11T23:46:16.014Z,5.40
2018-04-11T23:48:43.984Z,3.90
2018-04-11T23:51:11.788Z,2.90
2018-04-11T23:53:40.097Z,6.20
2018-04-11T23:56:07.601Z,2.70
2018-04-11T23:58:35.193Z,6.17
